sensor_id;sensor_type;location;lat;lon;timestamp;P1;durP1;ratioP1;P2;durP2;ratioP2
19776;SDS011;10047;42.490;26.012;2022-10-17T00:00:25;10.57;;;7.93;;
19776;SDS011;10047;42.490;26.012;2022-10-17T00:02:50;11.60;;;8.07;;
19776;SDS011;10047;42.490;26.012;2022-10-17T00:05:15;12.35;;;7.82;;
19776;SDS011;10047;42.490;26.012;2022-10-17T00:07:41;11.55;;;7.47;;
19776;SDS011;10047;42.490;26.012;2022-10-17T00:10:06;9.63;;;7.60;;
19776;SDS011;10047;42.490;26.012;2022-10-17T00:12:32;18.55;;;8.60;;
19776;SDS011;10047;42.490;26.012;2022-10-17T00:14:59;12.27;;;7.95;;
19776;SDS011;10047;42.490;26.012;2022-10-17T00:17:24;13.55;;;8.45;;
19776;SDS011;10047;42.490;26.012;2022-10-17T00:19:50;13.13;;;8.18;;
19776;SDS011;10047;42.490;26.012;2022-10-17T00:22:15;13.55;;;8.35;;
19776;SDS011;10047;42.490;26.012;2022-10-17T00:24:40;10.48;;;7.80;;
19776;SDS011;10047;42.490;26.012;2022-10-17T00:27:06;13.23;;;9.07;;
19776;SDS011;10047;42.490;26.012;2022-10-17T00:29:32;13.30;;;8.73;;
19776;SDS011;10047;42.490;26.012;2022-10-17T00:31:57;13.23;;;8.82;;
19776;SDS011;10047;42.490;26.012;2022-10-17T00:34:23;13.13;;;8.65;;
19776;SDS011;10047;42.490;26.012;2022-10-17T00:36:49;14.95;;;8.80;;
19776;SDS011;10047;42.490;26.012;2022-10-17T00:39:15;14.63;;;8.65;;
19776;SDS011;10047;42.490;26.012;2022-10-17T00:41:40;13.10;;;8.65;;
19776;SDS011;10047;42.490;26.012;2022-10-17T00:44:06;16.77;;;8.63;;
19776;SDS011;10047;42.490;26.012;2022-10-17T00:46:54;12.88;;;8.65;;
19776;SDS011;10047;42.490;26.012;2022-10-17T00:49:24;13.77;;;8.70;;
19776;SDS011;10047;42.490;26.012;2022-10-17T00:51:52;15.30;;;9.00;;
19776;SDS011;10047;42.490;26.012;2022-10-17T00:54:21;13.77;;;8.30;;
19776;SDS011;10047;42.490;26.012;2022-10-17T00:56:52;10.18;;;7.60;;
19776;SDS011;10047;42.490;26.012;2022-10-17T00:59:19;14.15;;;7.70;;
19776;SDS011;10047;42.490;26.012;2022-10-17T01:01:56;11.52;;;7.30;;
19776;SDS011;10047;42.490;26.012;2022-10-17T01:04:25;10.85;;;7.40;;
19776;SDS011;10047;42.490;26.012;2022-10-17T01:06:51;14.43;;;8.05;;
19776;SDS011;10047;42.490;26.012;2022-10-17T01:09:16;10.55;;;7.45;;
19776;SDS011;10047;42.490;26.012;2022-10-17T01:32:48;10.45;;;6.72;;
19776;SDS011;10047;42.490;26.012;2022-10-17T01:40:19;9.18;;;6.38;;
19776;SDS011;10047;42.490;26.012;2022-10-17T01:47:52;8.98;;;6.22;;
19776;SDS011;10047;42.490;26.012;2022-10-17T01:50:31;10.73;;;6.15;;
19776;SDS011;10047;42.490;26.012;2022-10-17T01:53:05;12.40;;;6.60;;
19776;SDS011;10047;42.490;26.012;2022-10-17T01:55:36;9.45;;;6.22;;
19776;SDS011;10047;42.490;26.012;2022-10-17T01:58:06;9.40;;;6.53;;
19776;SDS011;10047;42.490;26.012;2022-10-17T02:00:36;10.63;;;6.30;;
19776;SDS011;10047;42.490;26.012;2022-10-17T02:03:06;10.15;;;6.88;;
19776;SDS011;10047;42.490;26.012;2022-10-17T02:05:38;9.23;;;6.18;;
19776;SDS011;10047;42.490;26.012;2022-10-17T02:08:05;10.05;;;6.43;;
19776;SDS011;10047;42.490;26.012;2022-10-17T02:13:01;12.80;;;6.78;;
19776;SDS011;10047;42.490;26.012;2022-10-17T02:15:43;10.30;;;6.68;;
19776;SDS011;10047;42.490;26.012;2022-10-17T02:23:59;6.07;;;4.68;;
19776;SDS011;10047;42.490;26.012;2022-10-17T02:29:32;9.80;;;6.88;;
19776;SDS011;10047;42.490;26.012;2022-10-17T02:32:10;14.02;;;7.38;;
19776;SDS011;10047;42.490;26.012;2022-10-17T02:34:42;12.07;;;7.03;;
19776;SDS011;10047;42.490;26.012;2022-10-17T02:37:14;13.65;;;6.82;;
19776;SDS011;10047;42.490;26.012;2022-10-17T02:39:44;12.15;;;6.53;;
19776;SDS011;10047;42.490;26.012;2022-10-17T02:42:12;12.68;;;7.35;;
19776;SDS011;10047;42.490;26.012;2022-10-17T02:44:40;10.55;;;6.78;;
19776;SDS011;10047;42.490;26.012;2022-10-17T02:47:10;10.80;;;6.88;;
19776;SDS011;10047;42.490;26.012;2022-10-17T02:49:43;9.00;;;7.18;;
19776;SDS011;10047;42.490;26.012;2022-10-17T02:52:15;10.47;;;7.03;;
19776;SDS011;10047;42.490;26.012;2022-10-17T02:57:31;11.27;;;7.32;;
19776;SDS011;10047;42.490;26.012;2022-10-17T03:00:05;15.40;;;7.82;;
19776;SDS011;10047;42.490;26.012;2022-10-17T03:02:41;11.70;;;8.05;;
19776;SDS011;10047;42.490;26.012;2022-10-17T03:05:12;15.70;;;9.20;;
19776;SDS011;10047;42.490;26.012;2022-10-17T03:07:38;26.98;;;18.13;;
19776;SDS011;10047;42.490;26.012;2022-10-17T03:10:04;30.90;;;20.83;;
19776;SDS011;10047;42.490;26.012;2022-10-17T03:12:30;31.30;;;22.05;;
19776;SDS011;10047;42.490;26.012;2022-10-17T03:14:55;33.85;;;22.10;;
19776;SDS011;10047;42.490;26.012;2022-10-17T03:17:21;35.13;;;23.35;;
19776;SDS011;10047;42.490;26.012;2022-10-17T03:19:46;37.28;;;23.17;;
19776;SDS011;10047;42.490;26.012;2022-10-17T03:22:11;35.95;;;23.52;;
19776;SDS011;10047;42.490;26.012;2022-10-17T03:24:37;39.28;;;24.98;;
19776;SDS011;10047;42.490;26.012;2022-10-17T03:27:02;39.83;;;25.25;;
19776;SDS011;10047;42.490;26.012;2022-10-17T03:29:28;40.58;;;26.52;;
19776;SDS011;10047;42.490;26.012;2022-10-17T03:31:53;38.15;;;25.60;;
19776;SDS011;10047;42.490;26.012;2022-10-17T03:34:19;33.70;;;23.20;;
19776;SDS011;10047;42.490;26.012;2022-10-17T03:36:44;33.78;;;22.48;;
19776;SDS011;10047;42.490;26.012;2022-10-17T03:39:10;36.45;;;22.73;;
19776;SDS011;10047;42.490;26.012;2022-10-17T03:41:35;37.35;;;20.95;;
19776;SDS011;10047;42.490;26.012;2022-10-17T03:44:00;27.30;;;19.90;;
19776;SDS011;10047;42.490;26.012;2022-10-17T03:46:26;29.55;;;18.58;;
19776;SDS011;10047;42.490;26.012;2022-10-17T03:48:52;25.92;;;16.65;;
19776;SDS011;10047;42.490;26.012;2022-10-17T03:51:17;23.85;;;15.65;;
19776;SDS011;10047;42.490;26.012;2022-10-17T03:53:43;17.92;;;12.60;;
19776;SDS011;10047;42.490;26.012;2022-10-17T03:56:12;18.52;;;12.70;;
19776;SDS011;10047;42.490;26.012;2022-10-17T03:58:40;17.83;;;11.93;;
19776;SDS011;10047;42.490;26.012;2022-10-17T04:01:07;18.58;;;12.32;;
19776;SDS011;10047;42.490;26.012;2022-10-17T04:03:34;17.35;;;12.30;;
19776;SDS011;10047;42.490;26.012;2022-10-17T04:06:01;18.20;;;11.68;;
19776;SDS011;10047;42.490;26.012;2022-10-17T04:08:28;21.30;;;12.85;;
19776;SDS011;10047;42.490;26.012;2022-10-17T04:11:04;20.70;;;12.48;;
19776;SDS011;10047;42.490;26.012;2022-10-17T04:13:32;19.92;;;12.27;;
19776;SDS011;10047;42.490;26.012;2022-10-17T04:16:03;17.67;;;11.73;;
19776;SDS011;10047;42.490;26.012;2022-10-17T04:18:30;17.63;;;11.77;;
19776;SDS011;10047;42.490;26.012;2022-10-17T04:20:56;18.60;;;10.73;;
19776;SDS011;10047;42.490;26.012;2022-10-17T04:23:21;17.35;;;10.68;;
19776;SDS011;10047;42.490;26.012;2022-10-17T04:25:47;14.70;;;9.52;;
19776;SDS011;10047;42.490;26.012;2022-10-17T04:28:13;18.70;;;9.50;;
19776;SDS011;10047;42.490;26.012;2022-10-17T04:30:39;19.27;;;10.18;;
19776;SDS011;10047;42.490;26.012;2022-10-17T04:33:05;18.05;;;9.77;;
19776;SDS011;10047;42.490;26.012;2022-10-17T04:35:30;16.38;;;8.15;;
19776;SDS011;10047;42.490;26.012;2022-10-17T04:37:56;15.18;;;8.27;;
19776;SDS011;10047;42.490;26.012;2022-10-17T04:40:21;16.85;;;8.88;;
19776;SDS011;10047;42.490;26.012;2022-10-17T04:42:46;13.95;;;8.50;;
19776;SDS011;10047;42.490;26.012;2022-10-17T04:45:12;14.70;;;8.07;;
19776;SDS011;10047;42.490;26.012;2022-10-17T04:47:37;14.20;;;8.43;;
19776;SDS011;10047;42.490;26.012;2022-10-17T04:50:03;14.55;;;8.65;;
19776;SDS011;10047;42.490;26.012;2022-10-17T04:52:29;18.52;;;8.90;;
19776;SDS011;10047;42.490;26.012;2022-10-17T04:54:55;20.25;;;9.18;;
19776;SDS011;10047;42.490;26.012;2022-10-17T04:57:21;18.85;;;9.13;;
19776;SDS011;10047;42.490;26.012;2022-10-17T04:59:47;22.55;;;9.80;;
19776;SDS011;10047;42.490;26.012;2022-10-17T05:02:12;25.52;;;10.40;;
19776;SDS011;10047;42.490;26.012;2022-10-17T05:04:37;25.05;;;10.60;;
19776;SDS011;10047;42.490;26.012;2022-10-17T05:07:03;24.77;;;9.88;;
19776;SDS011;10047;42.490;26.012;2022-10-17T05:09:28;22.80;;;9.50;;
19776;SDS011;10047;42.490;26.012;2022-10-17T05:11:54;19.05;;;9.13;;
19776;SDS011;10047;42.490;26.012;2022-10-17T05:14:20;20.38;;;10.27;;
19776;SDS011;10047;42.490;26.012;2022-10-17T05:16:45;25.80;;;11.48;;
19776;SDS011;10047;42.490;26.012;2022-10-17T05:19:11;26.10;;;10.73;;
19776;SDS011;10047;42.490;26.012;2022-10-17T05:21:36;26.77;;;10.50;;
19776;SDS011;10047;42.490;26.012;2022-10-17T05:24:10;17.33;;;7.55;;
19776;SDS011;10047;42.490;26.012;2022-10-17T05:26:37;17.67;;;7.90;;
19776;SDS011;10047;42.490;26.012;2022-10-17T05:29:03;15.05;;;6.53;;
19776;SDS011;10047;42.490;26.012;2022-10-17T05:31:29;11.95;;;6.50;;
19776;SDS011;10047;42.490;26.012;2022-10-17T05:33:55;13.60;;;6.30;;
19776;SDS011;10047;42.490;26.012;2022-10-17T05:36:25;14.77;;;6.55;;
19776;SDS011;10047;42.490;26.012;2022-10-17T05:38:51;14.30;;;6.40;;
19776;SDS011;10047;42.490;26.012;2022-10-17T05:41:17;8.73;;;5.60;;
19776;SDS011;10047;42.490;26.012;2022-10-17T05:43:43;9.55;;;5.63;;
19776;SDS011;10047;42.490;26.012;2022-10-17T05:46:09;8.93;;;5.25;;
19776;SDS011;10047;42.490;26.012;2022-10-17T05:48:34;10.63;;;5.55;;
19776;SDS011;10047;42.490;26.012;2022-10-17T05:51:01;15.02;;;5.80;;
19776;SDS011;10047;42.490;26.012;2022-10-17T05:53:29;9.43;;;5.45;;
19776;SDS011;10047;42.490;26.012;2022-10-17T05:55:56;8.40;;;4.85;;
19776;SDS011;10047;42.490;26.012;2022-10-17T05:58:23;7.72;;;5.10;;
19776;SDS011;10047;42.490;26.012;2022-10-17T06:00:48;7.65;;;4.28;;
19776;SDS011;10047;42.490;26.012;2022-10-17T06:03:14;10.15;;;4.43;;
19776;SDS011;10047;42.490;26.012;2022-10-17T06:05:39;7.60;;;4.40;;
19776;SDS011;10047;42.490;26.012;2022-10-17T06:08:05;7.82;;;4.35;;
19776;SDS011;10047;42.490;26.012;2022-10-17T06:10:30;9.73;;;4.00;;
19776;SDS011;10047;42.490;26.012;2022-10-17T06:12:55;8.45;;;4.20;;
19776;SDS011;10047;42.490;26.012;2022-10-17T06:15:21;6.38;;;3.63;;
19776;SDS011;10047;42.490;26.012;2022-10-17T06:17:46;6.18;;;3.70;;
19776;SDS011;10047;42.490;26.012;2022-10-17T06:20:12;4.90;;;3.67;;
19776;SDS011;10047;42.490;26.012;2022-10-17T06:22:37;9.57;;;4.30;;
19776;SDS011;10047;42.490;26.012;2022-10-17T06:25:03;4.55;;;3.72;;
19776;SDS011;10047;42.490;26.012;2022-10-17T06:27:28;6.88;;;3.42;;
19776;SDS011;10047;42.490;26.012;2022-10-17T06:29:54;6.65;;;4.20;;
19776;SDS011;10047;42.490;26.012;2022-10-17T06:32:19;7.63;;;4.10;;
19776;SDS011;10047;42.490;26.012;2022-10-17T06:34:45;7.05;;;4.05;;
19776;SDS011;10047;42.490;26.012;2022-10-17T06:37:10;5.57;;;3.63;;
19776;SDS011;10047;42.490;26.012;2022-10-17T06:39:35;7.43;;;3.97;;
19776;SDS011;10047;42.490;26.012;2022-10-17T06:42:02;6.10;;;4.07;;
19776;SDS011;10047;42.490;26.012;2022-10-17T06:44:28;7.82;;;4.50;;
19776;SDS011;10047;42.490;26.012;2022-10-17T06:46:56;5.63;;;3.88;;
19776;SDS011;10047;42.490;26.012;2022-10-17T06:49:22;6.85;;;3.78;;
19776;SDS011;10047;42.490;26.012;2022-10-17T06:51:48;6.60;;;3.47;;
19776;SDS011;10047;42.490;26.012;2022-10-17T06:54:14;4.32;;;3.25;;
19776;SDS011;10047;42.490;26.012;2022-10-17T06:56:39;6.07;;;3.38;;
19776;SDS011;10047;42.490;26.012;2022-10-17T06:59:05;4.15;;;3.40;;
19776;SDS011;10047;42.490;26.012;2022-10-17T07:01:30;4.68;;;3.72;;
19776;SDS011;10047;42.490;26.012;2022-10-17T07:03:57;8.52;;;3.25;;
19776;SDS011;10047;42.490;26.012;2022-10-17T07:06:22;4.78;;;3.10;;
19776;SDS011;10047;42.490;26.012;2022-10-17T07:08:48;7.10;;;3.17;;
19776;SDS011;10047;42.490;26.012;2022-10-17T07:11:16;5.80;;;3.40;;
19776;SDS011;10047;42.490;26.012;2022-10-17T07:13:43;5.28;;;3.10;;
19776;SDS011;10047;42.490;26.012;2022-10-17T07:16:09;8.73;;;3.17;;
19776;SDS011;10047;42.490;26.012;2022-10-17T07:18:35;5.00;;;3.15;;
19776;SDS011;10047;42.490;26.012;2022-10-17T07:21:01;4.75;;;3.20;;
19776;SDS011;10047;42.490;26.012;2022-10-17T07:23:28;7.68;;;3.40;;
19776;SDS011;10047;42.490;26.012;2022-10-17T07:25:58;7.13;;;3.22;;
19776;SDS011;10047;42.490;26.012;2022-10-17T07:28:30;5.80;;;3.50;;
19776;SDS011;10047;42.490;26.012;2022-10-17T07:31:01;9.60;;;4.25;;
19776;SDS011;10047;42.490;26.012;2022-10-17T07:33:35;6.03;;;3.53;;
19776;SDS011;10047;42.490;26.012;2022-10-17T07:36:01;5.68;;;3.28;;
19776;SDS011;10047;42.490;26.012;2022-10-17T07:38:28;5.38;;;3.30;;
19776;SDS011;10047;42.490;26.012;2022-10-17T07:40:57;4.28;;;3.20;;
19776;SDS011;10047;42.490;26.012;2022-10-17T07:43:25;5.13;;;3.10;;
19776;SDS011;10047;42.490;26.012;2022-10-17T07:45:51;6.82;;;3.00;;
19776;SDS011;10047;42.490;26.012;2022-10-17T07:48:17;6.28;;;3.00;;
19776;SDS011;10047;42.490;26.012;2022-10-17T07:50:43;4.68;;;2.70;;
19776;SDS011;10047;42.490;26.012;2022-10-17T07:53:08;4.13;;;2.63;;
19776;SDS011;10047;42.490;26.012;2022-10-17T07:55:35;5.47;;;3.03;;
19776;SDS011;10047;42.490;26.012;2022-10-17T07:58:01;6.45;;;2.83;;
19776;SDS011;10047;42.490;26.012;2022-10-17T08:00:27;3.38;;;3.00;;
19776;SDS011;10047;42.490;26.012;2022-10-17T08:02:52;6.95;;;2.90;;
19776;SDS011;10047;42.490;26.012;2022-10-17T08:05:18;3.92;;;2.70;;
19776;SDS011;10047;42.490;26.012;2022-10-17T08:07:43;5.03;;;2.70;;
19776;SDS011;10047;42.490;26.012;2022-10-17T08:10:10;5.35;;;2.90;;
19776;SDS011;10047;42.490;26.012;2022-10-17T08:12:36;7.30;;;2.75;;
19776;SDS011;10047;42.490;26.012;2022-10-17T08:15:02;4.07;;;2.60;;
19776;SDS011;10047;42.490;26.012;2022-10-17T08:17:29;6.18;;;2.80;;
19776;SDS011;10047;42.490;26.012;2022-10-17T08:19:55;4.65;;;2.67;;
19776;SDS011;10047;42.490;26.012;2022-10-17T08:22:20;5.95;;;2.95;;
19776;SDS011;10047;42.490;26.012;2022-10-17T08:24:45;4.53;;;2.65;;
19776;SDS011;10047;42.490;26.012;2022-10-17T08:27:11;5.32;;;2.78;;
19776;SDS011;10047;42.490;26.012;2022-10-17T08:29:40;3.95;;;2.83;;
19776;SDS011;10047;42.490;26.012;2022-10-17T08:32:06;7.00;;;3.22;;
19776;SDS011;10047;42.490;26.012;2022-10-17T08:34:33;5.57;;;2.97;;
19776;SDS011;10047;42.490;26.012;2022-10-17T08:36:58;5.18;;;3.13;;
19776;SDS011;10047;42.490;26.012;2022-10-17T08:39:24;5.10;;;2.70;;
19776;SDS011;10047;42.490;26.012;2022-10-17T08:42:04;6.40;;;2.65;;
19776;SDS011;10047;42.490;26.012;2022-10-17T08:44:38;12.48;;;3.10;;
19776;SDS011;10047;42.490;26.012;2022-10-17T08:47:37;7.07;;;2.80;;
19776;SDS011;10047;42.490;26.012;2022-10-17T08:50:08;6.25;;;2.67;;
19776;SDS011;10047;42.490;26.012;2022-10-17T08:55:17;6.30;;;2.70;;
19776;SDS011;10047;42.490;26.012;2022-10-17T08:57:58;4.43;;;2.70;;
19776;SDS011;10047;42.490;26.012;2022-10-17T09:00:24;6.75;;;2.80;;
19776;SDS011;10047;42.490;26.012;2022-10-17T09:05:45;5.40;;;2.80;;
19776;SDS011;10047;42.490;26.012;2022-10-17T09:08:51;7.68;;;2.80;;
19776;SDS011;10047;42.490;26.012;2022-10-17T09:17:12;5.22;;;2.83;;
19776;SDS011;10047;42.490;26.012;2022-10-17T09:19:43;6.85;;;2.90;;
19776;SDS011;10047;42.490;26.012;2022-10-17T09:22:20;6.82;;;2.80;;
19776;SDS011;10047;42.490;26.012;2022-10-17T09:24:58;5.95;;;3.00;;
19776;SDS011;10047;42.490;26.012;2022-10-17T09:32:39;4.38;;;2.60;;
19776;SDS011;10047;42.490;26.012;2022-10-17T09:35:10;6.18;;;3.10;;
19776;SDS011;10047;42.490;26.012;2022-10-17T09:37:37;6.07;;;2.97;;
19776;SDS011;10047;42.490;26.012;2022-10-17T09:40:03;6.82;;;3.15;;
19776;SDS011;10047;42.490;26.012;2022-10-17T09:42:32;6.82;;;3.25;;
19776;SDS011;10047;42.490;26.012;2022-10-17T09:50:08;5.00;;;3.13;;
19776;SDS011;10047;42.490;26.012;2022-10-17T09:52:44;7.10;;;3.00;;
19776;SDS011;10047;42.490;26.012;2022-10-17T09:58:02;6.95;;;3.38;;
19776;SDS011;10047;42.490;26.012;2022-10-17T10:00:30;7.88;;;3.47;;
19776;SDS011;10047;42.490;26.012;2022-10-17T10:06:00;9.60;;;3.75;;
19776;SDS011;10047;42.490;26.012;2022-10-17T10:08:33;6.85;;;3.42;;
19776;SDS011;10047;42.490;26.012;2022-10-17T10:11:02;11.32;;;3.30;;
19776;SDS011;10047;42.490;26.012;2022-10-17T10:13:31;6.50;;;3.17;;
19776;SDS011;10047;42.490;26.012;2022-10-17T10:18:48;4.88;;;3.40;;
19776;SDS011;10047;42.490;26.012;2022-10-17T10:21:19;5.78;;;3.30;;
19776;SDS011;10047;42.490;26.012;2022-10-17T10:29:17;6.30;;;3.50;;
19776;SDS011;10047;42.490;26.012;2022-10-17T10:31:58;5.60;;;3.00;;
19776;SDS011;10047;42.490;26.012;2022-10-17T10:34:36;8.07;;;3.53;;
19776;SDS011;10047;42.490;26.012;2022-10-17T10:37:17;5.38;;;3.20;;
19776;SDS011;10047;42.490;26.012;2022-10-17T10:39:49;7.43;;;2.95;;
19776;SDS011;10047;42.490;26.012;2022-10-17T10:42:23;4.78;;;3.05;;
19776;SDS011;10047;42.490;26.012;2022-10-17T10:44:52;5.72;;;3.05;;
19776;SDS011;10047;42.490;26.012;2022-10-17T10:47:23;6.22;;;2.90;;
19776;SDS011;10047;42.490;26.012;2022-10-17T10:49:51;6.93;;;2.97;;
19776;SDS011;10047;42.490;26.012;2022-10-17T10:52:49;7.25;;;3.25;;
19776;SDS011;10047;42.490;26.012;2022-10-17T10:55:26;6.75;;;3.25;;
19776;SDS011;10047;42.490;26.012;2022-10-17T10:57:57;6.32;;;3.33;;
19776;SDS011;10047;42.490;26.012;2022-10-17T11:00:28;5.50;;;2.78;;
19776;SDS011;10047;42.490;26.012;2022-10-17T11:05:55;8.90;;;3.15;;
19776;SDS011;10047;42.490;26.012;2022-10-17T11:08:37;9.07;;;3.22;;
19776;SDS011;10047;42.490;26.012;2022-10-17T11:13:46;7.15;;;2.97;;
19776;SDS011;10047;42.490;26.012;2022-10-17T11:22:15;6.15;;;3.10;;
19776;SDS011;10047;42.490;26.012;2022-10-17T11:24:44;5.63;;;3.08;;
19776;SDS011;10047;42.490;26.012;2022-10-17T11:27:24;5.25;;;2.92;;
19776;SDS011;10047;42.490;26.012;2022-10-17T11:29:53;9.57;;;3.35;;
19776;SDS011;10047;42.490;26.012;2022-10-17T11:32:28;6.70;;;3.50;;
19776;SDS011;10047;42.490;26.012;2022-10-17T11:35:05;9.55;;;3.50;;
19776;SDS011;10047;42.490;26.012;2022-10-17T11:37:43;6.35;;;3.58;;
19776;SDS011;10047;42.490;26.012;2022-10-17T11:40:29;11.18;;;3.40;;
19776;SDS011;10047;42.490;26.012;2022-10-17T11:43:01;6.53;;;3.10;;
19776;SDS011;10047;42.490;26.012;2022-10-17T11:45:32;4.97;;;3.05;;
19776;SDS011;10047;42.490;26.012;2022-10-17T11:48:06;4.97;;;3.30;;
19776;SDS011;10047;42.490;26.012;2022-10-17T11:50:46;5.88;;;3.58;;
19776;SDS011;10047;42.490;26.012;2022-10-17T11:53:18;8.13;;;3.35;;
19776;SDS011;10047;42.490;26.012;2022-10-17T11:55:46;10.32;;;3.30;;
19776;SDS011;10047;42.490;26.012;2022-10-17T11:58:24;4.82;;;3.00;;
19776;SDS011;10047;42.490;26.012;2022-10-17T12:03:43;11.43;;;3.60;;
19776;SDS011;10047;42.490;26.012;2022-10-17T12:16:57;9.25;;;3.65;;
19776;SDS011;10047;42.490;26.012;2022-10-17T12:19:23;10.15;;;3.85;;
19776;SDS011;10047;42.490;26.012;2022-10-17T12:22:01;12.57;;;3.80;;
19776;SDS011;10047;42.490;26.012;2022-10-17T12:24:34;6.80;;;3.13;;
19776;SDS011;10047;42.490;26.012;2022-10-17T12:27:29;5.50;;;3.78;;
19776;SDS011;10047;42.490;26.012;2022-10-17T12:30:14;5.10;;;3.33;;
19776;SDS011;10047;42.490;26.012;2022-10-17T12:35:28;6.47;;;3.50;;
19776;SDS011;10047;42.490;26.012;2022-10-17T12:43:47;7.10;;;3.38;;
19776;SDS011;10047;42.490;26.012;2022-10-17T12:48:57;8.77;;;2.88;;
19776;SDS011;10047;42.490;26.012;2022-10-17T12:51:25;6.00;;;2.95;;
19776;SDS011;10047;42.490;26.012;2022-10-17T12:53:59;8.68;;;3.08;;
19776;SDS011;10047;42.490;26.012;2022-10-17T12:56:33;5.03;;;2.78;;
19776;SDS011;10047;42.490;26.012;2022-10-17T12:59:13;7.30;;;3.05;;
19776;SDS011;10047;42.490;26.012;2022-10-17T13:01:42;8.05;;;3.08;;
19776;SDS011;10047;42.490;26.012;2022-10-17T13:04:10;7.68;;;3.30;;
19776;SDS011;10047;42.490;26.012;2022-10-17T13:06:37;6.78;;;2.70;;
19776;SDS011;10047;42.490;26.012;2022-10-17T13:09:21;6.95;;;2.90;;
19776;SDS011;10047;42.490;26.012;2022-10-17T13:11:53;7.78;;;3.20;;
19776;SDS011;10047;42.490;26.012;2022-10-17T13:14:21;5.32;;;3.00;;
19776;SDS011;10047;42.490;26.012;2022-10-17T13:16:52;5.97;;;3.10;;
19776;SDS011;10047;42.490;26.012;2022-10-17T13:19:24;7.88;;;2.60;;
19776;SDS011;10047;42.490;26.012;2022-10-17T13:21:53;6.85;;;2.70;;
19776;SDS011;10047;42.490;26.012;2022-10-17T13:24:34;5.20;;;3.05;;
19776;SDS011;10047;42.490;26.012;2022-10-17T13:26:59;6.45;;;2.95;;
19776;SDS011;10047;42.490;26.012;2022-10-17T13:29:26;6.50;;;2.70;;
19776;SDS011;10047;42.490;26.012;2022-10-17T13:31:54;5.70;;;2.63;;
19776;SDS011;10047;42.490;26.012;2022-10-17T13:34:24;5.40;;;2.60;;
19776;SDS011;10047;42.490;26.012;2022-10-17T13:36:54;6.25;;;2.60;;
19776;SDS011;10047;42.490;26.012;2022-10-17T13:39:22;4.55;;;2.78;;
19776;SDS011;10047;42.490;26.012;2022-10-17T13:41:53;10.10;;;2.70;;
19776;SDS011;10047;42.490;26.012;2022-10-17T13:44:21;4.93;;;2.58;;
19776;SDS011;10047;42.490;26.012;2022-10-17T13:46:49;5.07;;;2.53;;
19776;SDS011;10047;42.490;26.012;2022-10-17T13:49:20;7.03;;;2.95;;
19776;SDS011;10047;42.490;26.012;2022-10-17T13:51:50;6.63;;;2.60;;
19776;SDS011;10047;42.490;26.012;2022-10-17T13:54:24;4.95;;;2.30;;
19776;SDS011;10047;42.490;26.012;2022-10-17T13:56:55;7.70;;;2.88;;
19776;SDS011;10047;42.490;26.012;2022-10-17T13:59:23;6.63;;;2.80;;
19776;SDS011;10047;42.490;26.012;2022-10-17T14:01:52;7.75;;;3.03;;
19776;SDS011;10047;42.490;26.012;2022-10-17T14:04:19;5.00;;;3.10;;
19776;SDS011;10047;42.490;26.012;2022-10-17T14:06:45;8.45;;;2.88;;
19776;SDS011;10047;42.490;26.012;2022-10-17T14:09:24;6.68;;;2.95;;
19776;SDS011;10047;42.490;26.012;2022-10-17T14:12:11;6.53;;;2.67;;
19776;SDS011;10047;42.490;26.012;2022-10-17T14:14:37;4.95;;;2.42;;
19776;SDS011;10047;42.490;26.012;2022-10-17T14:17:12;4.63;;;2.70;;
19776;SDS011;10047;42.490;26.012;2022-10-17T14:19:53;4.75;;;2.58;;
19776;SDS011;10047;42.490;26.012;2022-10-17T14:22:28;9.32;;;2.75;;
19776;SDS011;10047;42.490;26.012;2022-10-17T14:24:54;9.60;;;3.28;;
19776;SDS011;10047;42.490;26.012;2022-10-17T14:30:02;8.57;;;3.05;;
19776;SDS011;10047;42.490;26.012;2022-10-17T14:32:31;6.07;;;2.40;;
19776;SDS011;10047;42.490;26.012;2022-10-17T14:34:59;6.47;;;2.65;;
19776;SDS011;10047;42.490;26.012;2022-10-17T14:37:29;7.53;;;3.00;;
19776;SDS011;10047;42.490;26.012;2022-10-17T14:40:03;5.05;;;2.50;;
19776;SDS011;10047;42.490;26.012;2022-10-17T14:42:30;7.55;;;2.88;;
19776;SDS011;10047;42.490;26.012;2022-10-17T14:44:57;8.95;;;3.25;;
19776;SDS011;10047;42.490;26.012;2022-10-17T14:47:30;6.63;;;3.22;;
19776;SDS011;10047;42.490;26.012;2022-10-17T14:50:06;5.93;;;2.90;;
19776;SDS011;10047;42.490;26.012;2022-10-17T14:52:35;6.15;;;3.13;;
19776;SDS011;10047;42.490;26.012;2022-10-17T14:55:22;7.72;;;3.00;;
19776;SDS011;10047;42.490;26.012;2022-10-17T14:57:49;6.78;;;3.20;;
19776;SDS011;10047;42.490;26.012;2022-10-17T15:00:15;12.27;;;3.00;;
19776;SDS011;10047;42.490;26.012;2022-10-17T15:02:49;9.88;;;3.30;;
19776;SDS011;10047;42.490;26.012;2022-10-17T15:05:17;8.82;;;3.10;;
19776;SDS011;10047;42.490;26.012;2022-10-17T15:07:44;7.40;;;3.47;;
19776;SDS011;10047;42.490;26.012;2022-10-17T15:10:32;9.02;;;3.20;;
19776;SDS011;10047;42.490;26.012;2022-10-17T15:13:00;9.50;;;3.08;;
19776;SDS011;10047;42.490;26.012;2022-10-17T15:15:29;6.93;;;3.03;;
19776;SDS011;10047;42.490;26.012;2022-10-17T15:17:56;7.32;;;3.00;;
19776;SDS011;10047;42.490;26.012;2022-10-17T15:20:23;9.80;;;2.97;;
19776;SDS011;10047;42.490;26.012;2022-10-17T15:22:54;7.68;;;2.80;;
19776;SDS011;10047;42.490;26.012;2022-10-17T15:25:24;10.07;;;3.20;;
19776;SDS011;10047;42.490;26.012;2022-10-17T15:27:50;4.25;;;2.90;;
19776;SDS011;10047;42.490;26.012;2022-10-17T15:30:20;7.13;;;3.03;;
19776;SDS011;10047;42.490;26.012;2022-10-17T15:32:50;7.20;;;3.10;;
19776;SDS011;10047;42.490;26.012;2022-10-17T15:35:16;5.95;;;3.03;;
19776;SDS011;10047;42.490;26.012;2022-10-17T15:37:43;7.78;;;3.10;;
19776;SDS011;10047;42.490;26.012;2022-10-17T15:40:17;8.85;;;3.03;;
19776;SDS011;10047;42.490;26.012;2022-10-17T15:42:48;7.97;;;3.97;;
19776;SDS011;10047;42.490;26.012;2022-10-17T15:45:14;8.18;;;4.20;;
19776;SDS011;10047;42.490;26.012;2022-10-17T15:47:42;7.43;;;4.30;;
19776;SDS011;10047;42.490;26.012;2022-10-17T15:52:40;20.05;;;9.82;;
19776;SDS011;10047;42.490;26.012;2022-10-17T15:55:06;13.68;;;5.55;;
19776;SDS011;10047;42.490;26.012;2022-10-17T15:57:34;7.70;;;3.40;;
19776;SDS011;10047;42.490;26.012;2022-10-17T16:00:03;7.97;;;3.60;;
19776;SDS011;10047;42.490;26.012;2022-10-17T16:02:31;6.97;;;3.55;;
19776;SDS011;10047;42.490;26.012;2022-10-17T16:04:57;9.43;;;3.47;;
19776;SDS011;10047;42.490;26.012;2022-10-17T16:07:23;8.45;;;3.42;;
19776;SDS011;10047;42.490;26.012;2022-10-17T16:09:48;7.13;;;3.28;;
19776;SDS011;10047;42.490;26.012;2022-10-17T16:12:15;6.20;;;3.33;;
19776;SDS011;10047;42.490;26.012;2022-10-17T16:14:42;7.05;;;3.55;;
19776;SDS011;10047;42.490;26.012;2022-10-17T16:17:10;9.50;;;3.28;;
19776;SDS011;10047;42.490;26.012;2022-10-17T16:19:38;9.20;;;3.45;;
19776;SDS011;10047;42.490;26.012;2022-10-17T16:22:03;5.00;;;3.50;;
19776;SDS011;10047;42.490;26.012;2022-10-17T16:24:30;7.45;;;3.60;;
19776;SDS011;10047;42.490;26.012;2022-10-17T16:26:56;5.40;;;3.72;;
19776;SDS011;10047;42.490;26.012;2022-10-17T16:29:22;11.73;;;3.80;;
19776;SDS011;10047;42.490;26.012;2022-10-17T16:31:47;9.85;;;3.80;;
19776;SDS011;10047;42.490;26.012;2022-10-17T16:34:13;11.98;;;3.83;;
19776;SDS011;10047;42.490;26.012;2022-10-17T16:36:39;9.93;;;3.50;;
19776;SDS011;10047;42.490;26.012;2022-10-17T16:39:05;8.23;;;3.92;;
19776;SDS011;10047;42.490;26.012;2022-10-17T16:41:33;5.22;;;3.10;;